Camborne, United Kingdom
Current Conditions -  °F | °C
As of 7:50 AM on Tuesday 27 Jan 2015 (Local Time) from EGDR Reporting Station
Overcast Overcast  
Wind Chill:   Ceiling: 3000
Heat Index:   Visibility: 6mi
Dew Point:   Wind: 5mph
Humidity: 87%   Direction: 290°WNW
Pressure: 30.45"   Gusts: NA
Location:  50.21°N, 5.3°W
Report Text: EGDR 270750Z 29004KT 9999 FEW020 BKN030 OVC040 07/05 Q1031 BLU TEMPO 8000 -DZ SCT009 OVC020 GRN
Loading
Personal Weather Stations






























Interactive Weather Map New forecast layout! Learn more

10-Day Weather Forecast

Advertisements
Track Severe Weather on mobile